sensor_id;sensor_type;location;lat;lon;timestamp;temperature;humidity
7704;DHT22;3894;49.700;10.770;2024-02-28T00:02:21;5.20;99.90
7704;DHT22;3894;49.700;10.770;2024-02-28T00:04:47;5.20;99.90
7704;DHT22;3894;49.700;10.770;2024-02-28T00:07:12;5.20;99.90
7704;DHT22;3894;49.700;10.770;2024-02-28T00:09:38;5.20;99.90
7704;DHT22;3894;49.700;10.770;2024-02-28T00:12:04;5.30;99.90
7704;DHT22;3894;49.700;10.770;2024-02-28T00:14:29;5.30;99.90
7704;DHT22;3894;49.700;10.770;2024-02-28T00:16:55;5.20;99.90
7704;DHT22;3894;49.700;10.770;2024-02-28T00:19:20;5.30;99.90
7704;DHT22;3894;49.700;10.770;2024-02-28T00:21:47;5.20;99.90
7704;DHT22;3894;49.700;10.770;2024-02-28T00:24:13;5.30;99.90
7704;DHT22;3894;49.700;10.770;2024-02-28T00:26:42;5.30;99.90
7704;DHT22;3894;49.700;10.770;2024-02-28T00:29:09;5.20;99.90
7704;DHT22;3894;49.700;10.770;2024-02-28T00:31:34;5.20;99.90
7704;DHT22;3894;49.700;10.770;2024-02-28T00:34:00;5.20;99.90
7704;DHT22;3894;49.700;10.770;2024-02-28T00:36:25;5.30;99.90
7704;DHT22;3894;49.700;10.770;2024-02-28T00:38:51;5.20;99.90
7704;DHT22;3894;49.700;10.770;2024-02-28T00:41:16;5.20;99.90
7704;DHT22;3894;49.700;10.770;2024-02-28T00:43:42;5.20;99.90
7704;DHT22;3894;49.700;10.770;2024-02-28T00:46:07;5.20;99.90
7704;DHT22;3894;49.700;10.770;2024-02-28T00:48:40;5.20;99.90
7704;DHT22;3894;49.700;10.770;2024-02-28T00:51:06;5.20;99.90
7704;DHT22;3894;49.700;10.770;2024-02-28T00:53:33;5.20;99.90
7704;DHT22;3894;49.700;10.770;2024-02-28T00:55:58;5.20;99.90
7704;DHT22;3894;49.700;10.770;2024-02-28T00:58:24;5.20;99.90
7704;DHT22;3894;49.700;10.770;2024-02-28T01:00:51;5.20;99.90
7704;DHT22;3894;49.700;10.770;2024-02-28T01:03:17;5.20;99.90
7704;DHT22;3894;49.700;10.770;2024-02-28T01:05:43;5.20;99.90
7704;DHT22;3894;49.700;10.770;2024-02-28T01:08:09;5.20;99.90
7704;DHT22;3894;49.700;10.770;2024-02-28T01:10:34;5.20;99.90
7704;DHT22;3894;49.700;10.770;2024-02-28T01:13:00;5.20;99.90
7704;DHT22;3894;49.700;10.770;2024-02-28T01:15:26;5.20;99.90
7704;DHT22;3894;49.700;10.770;2024-02-28T01:17:51;5.20;99.90
7704;DHT22;3894;49.700;10.770;2024-02-28T01:20:17;5.10;99.90
7704;DHT22;3894;49.700;10.770;2024-02-28T01:22:42;5.20;99.90
7704;DHT22;3894;49.700;10.770;2024-02-28T01:25:08;5.20;99.90
7704;DHT22;3894;49.700;10.770;2024-02-28T01:27:34;5.20;99.90
7704;DHT22;3894;49.700;10.770;2024-02-28T01:30:00;5.20;99.90
7704;DHT22;3894;49.700;10.770;2024-02-28T01:32:26;5.20;99.90
7704;DHT22;3894;49.700;10.770;2024-02-28T01:34:51;5.10;99.90
7704;DHT22;3894;49.700;10.770;2024-02-28T01:37:17;5.10;99.90
7704;DHT22;3894;49.700;10.770;2024-02-28T01:39:42;5.10;99.90
7704;DHT22;3894;49.700;10.770;2024-02-28T01:42:08;5.10;99.90
7704;DHT22;3894;49.700;10.770;2024-02-28T01:44:43;5.10;99.90
7704;DHT22;3894;49.700;10.770;2024-02-28T01:47:09;5.20;99.90
7704;DHT22;3894;49.700;10.770;2024-02-28T01:49:35;5.20;99.90
7704;DHT22;3894;49.700;10.770;2024-02-28T01:52:01;5.20;99.90
7704;DHT22;3894;49.700;10.770;2024-02-28T01:54:27;5.20;99.90
7704;DHT22;3894;49.700;10.770;2024-02-28T01:56:55;5.10;99.90
7704;DHT22;3894;49.700;10.770;2024-02-28T01:59:23;5.10;99.90
7704;DHT22;3894;49.700;10.770;2024-02-28T02:01:50;5.00;99.90
7704;DHT22;3894;49.700;10.770;2024-02-28T02:04:15;5.00;99.90
7704;DHT22;3894;49.700;10.770;2024-02-28T02:06:43;5.00;99.90
7704;DHT22;3894;49.700;10.770;2024-02-28T02:09:09;5.00;99.90
7704;DHT22;3894;49.700;10.770;2024-02-28T02:11:35;4.90;99.90
7704;DHT22;3894;49.700;10.770;2024-02-28T02:14:01;4.90;99.90
7704;DHT22;3894;49.700;10.770;2024-02-28T02:16:26;4.90;99.90
7704;DHT22;3894;49.700;10.770;2024-02-28T02:19:28;4.80;99.90
7704;DHT22;3894;49.700;10.770;2024-02-28T02:21:57;4.80;99.90
7704;DHT22;3894;49.700;10.770;2024-02-28T02:24:23;4.80;99.90
7704;DHT22;3894;49.700;10.770;2024-02-28T02:26:54;4.80;99.90
7704;DHT22;3894;49.700;10.770;2024-02-28T02:29:20;4.90;99.90
7704;DHT22;3894;49.700;10.770;2024-02-28T02:31:45;4.90;99.90
7704;DHT22;3894;49.700;10.770;2024-02-28T02:34:11;4.90;99.90
7704;DHT22;3894;49.700;10.770;2024-02-28T02:36:36;5.00;99.90
7704;DHT22;3894;49.700;10.770;2024-02-28T02:39:02;5.00;99.90
7704;DHT22;3894;49.700;10.770;2024-02-28T02:41:28;5.00;99.90
7704;DHT22;3894;49.700;10.770;2024-02-28T02:43:53;5.00;99.90
7704;DHT22;3894;49.700;10.770;2024-02-28T02:46:19;5.00;99.90
7704;DHT22;3894;49.700;10.770;2024-02-28T02:48:44;5.00;99.90
7704;DHT22;3894;49.700;10.770;2024-02-28T02:51:10;5.10;99.90
7704;DHT22;3894;49.700;10.770;2024-02-28T02:53:37;5.10;99.90
7704;DHT22;3894;49.700;10.770;2024-02-28T02:56:06;5.10;99.90
7704;DHT22;3894;49.700;10.770;2024-02-28T02:58:31;5.10;99.90
7704;DHT22;3894;49.700;10.770;2024-02-28T03:00:57;5.10;99.90
7704;DHT22;3894;49.700;10.770;2024-02-28T03:03:23;5.10;99.90
7704;DHT22;3894;49.700;10.770;2024-02-28T03:05:48;5.10;99.90
7704;DHT22;3894;49.700;10.770;2024-02-28T03:08:15;5.10;99.90
7704;DHT22;3894;49.700;10.770;2024-02-28T03:10:40;5.10;99.90
7704;DHT22;3894;49.700;10.770;2024-02-28T03:13:06;5.10;99.90
7704;DHT22;3894;49.700;10.770;2024-02-28T03:15:33;5.10;99.90
7704;DHT22;3894;49.700;10.770;2024-02-28T03:17:58;5.10;99.90
7704;DHT22;3894;49.700;10.770;2024-02-28T03:20:24;5.10;99.90
7704;DHT22;3894;49.700;10.770;2024-02-28T03:22:49;5.10;99.90
7704;DHT22;3894;49.700;10.770;2024-02-28T03:25:15;5.10;99.90
7704;DHT22;3894;49.700;10.770;2024-02-28T03:27:40;5.10;99.90
7704;DHT22;3894;49.700;10.770;2024-02-28T03:30:06;5.10;99.90
7704;DHT22;3894;49.700;10.770;2024-02-28T03:32:32;5.10;99.90
7704;DHT22;3894;49.700;10.770;2024-02-28T03:34:58;5.10;99.90
7704;DHT22;3894;49.700;10.770;2024-02-28T03:37:23;5.10;99.90
7704;DHT22;3894;49.700;10.770;2024-02-28T03:39:49;5.10;99.90
7704;DHT22;3894;49.700;10.770;2024-02-28T03:42:14;5.10;99.90
7704;DHT22;3894;49.700;10.770;2024-02-28T03:44:40;5.10;99.90
7704;DHT22;3894;49.700;10.770;2024-02-28T03:47:06;5.00;99.90
7704;DHT22;3894;49.700;10.770;2024-02-28T03:49:31;5.00;99.90
7704;DHT22;3894;49.700;10.770;2024-02-28T03:51:57;5.00;99.90
7704;DHT22;3894;49.700;10.770;2024-02-28T03:54:22;5.00;99.90
7704;DHT22;3894;49.700;10.770;2024-02-28T03:56:48;5.00;99.90
7704;DHT22;3894;49.700;10.770;2024-02-28T03:59:13;5.00;99.90
7704;DHT22;3894;49.700;10.770;2024-02-28T04:01:39;4.90;99.90
7704;DHT22;3894;49.700;10.770;2024-02-28T04:04:04;5.00;99.90
7704;DHT22;3894;49.700;10.770;2024-02-28T04:06:30;5.00;99.90
7704;DHT22;3894;49.700;10.770;2024-02-28T04:08:56;5.00;99.90
7704;DHT22;3894;49.700;10.770;2024-02-28T04:11:21;5.00;99.90
7704;DHT22;3894;49.700;10.770;2024-02-28T04:13:47;5.00;99.90
7704;DHT22;3894;49.700;10.770;2024-02-28T04:16:12;5.00;99.90
7704;DHT22;3894;49.700;10.770;2024-02-28T04:18:38;5.00;99.90
7704;DHT22;3894;49.700;10.770;2024-02-28T04:21:03;5.00;99.90
7704;DHT22;3894;49.700;10.770;2024-02-28T04:23:29;5.00;99.90
7704;DHT22;3894;49.700;10.770;2024-02-28T04:25:54;5.00;99.90
7704;DHT22;3894;49.700;10.770;2024-02-28T04:28:20;5.00;99.90
7704;DHT22;3894;49.700;10.770;2024-02-28T04:30:45;5.10;99.90
7704;DHT22;3894;49.700;10.770;2024-02-28T04:33:11;5.10;99.90
7704;DHT22;3894;49.700;10.770;2024-02-28T04:35:37;5.00;99.90
7704;DHT22;3894;49.700;10.770;2024-02-28T04:38:02;5.10;99.90
7704;DHT22;3894;49.700;10.770;2024-02-28T04:40:28;5.10;99.90
7704;DHT22;3894;49.700;10.770;2024-02-28T04:42:54;5.10;99.90
7704;DHT22;3894;49.700;10.770;2024-02-28T04:45:19;5.10;99.90
7704;DHT22;3894;49.700;10.770;2024-02-28T04:47:45;5.10;99.90
7704;DHT22;3894;49.700;10.770;2024-02-28T04:50:11;5.10;99.90
7704;DHT22;3894;49.700;10.770;2024-02-28T04:52:36;5.10;99.90
7704;DHT22;3894;49.700;10.770;2024-02-28T04:55:02;5.10;99.90
7704;DHT22;3894;49.700;10.770;2024-02-28T04:57:27;5.10;99.90
7704;DHT22;3894;49.700;10.770;2024-02-28T04:59:53;5.00;99.90
7704;DHT22;3894;49.700;10.770;2024-02-28T05:02:19;5.10;99.90
7704;DHT22;3894;49.700;10.770;2024-02-28T05:04:46;5.10;99.90
7704;DHT22;3894;49.700;10.770;2024-02-28T05:07:12;5.00;99.90
7704;DHT22;3894;49.700;10.770;2024-02-28T05:09:38;5.00;99.90
7704;DHT22;3894;49.700;10.770;2024-02-28T05:12:04;5.10;99.90
7704;DHT22;3894;49.700;10.770;2024-02-28T05:14:29;5.00;99.90
7704;DHT22;3894;49.700;10.770;2024-02-28T05:16:55;5.00;99.90
7704;DHT22;3894;49.700;10.770;2024-02-28T05:19:21;5.00;99.90
7704;DHT22;3894;49.700;10.770;2024-02-28T05:21:46;4.90;99.90
7704;DHT22;3894;49.700;10.770;2024-02-28T05:24:15;5.00;99.90
7704;DHT22;3894;49.700;10.770;2024-02-28T05:26:40;5.00;99.90
7704;DHT22;3894;49.700;10.770;2024-02-28T05:29:06;5.00;99.90
7704;DHT22;3894;49.700;10.770;2024-02-28T05:31:32;4.90;99.90
7704;DHT22;3894;49.700;10.770;2024-02-28T05:33:58;4.90;99.90
7704;DHT22;3894;49.700;10.770;2024-02-28T05:36:25;4.90;99.90
7704;DHT22;3894;49.700;10.770;2024-02-28T05:38:53;4.90;99.90
7704;DHT22;3894;49.700;10.770;2024-02-28T05:41:18;4.90;99.90
7704;DHT22;3894;49.700;10.770;2024-02-28T05:43:45;4.90;99.90
7704;DHT22;3894;49.700;10.770;2024-02-28T05:46:11;4.80;99.90
7704;DHT22;3894;49.700;10.770;2024-02-28T05:48:37;4.80;99.90
7704;DHT22;3894;49.700;10.770;2024-02-28T05:51:03;4.80;99.90
7704;DHT22;3894;49.700;10.770;2024-02-28T05:53:29;4.80;99.90
7704;DHT22;3894;49.700;10.770;2024-02-28T05:55:58;4.80;99.90
7704;DHT22;3894;49.700;10.770;2024-02-28T05:58:23;4.80;99.90
7704;DHT22;3894;49.700;10.770;2024-02-28T06:00:51;4.90;99.90
7704;DHT22;3894;49.700;10.770;2024-02-28T06:03:16;4.90;99.90
7704;DHT22;3894;49.700;10.770;2024-02-28T06:05:42;4.90;99.90
7704;DHT22;3894;49.700;10.770;2024-02-28T06:08:08;4.90;99.90
7704;DHT22;3894;49.700;10.770;2024-02-28T06:10:33;4.90;99.90
7704;DHT22;3894;49.700;10.770;2024-02-28T06:12:59;4.90;99.90
7704;DHT22;3894;49.700;10.770;2024-02-28T06:15:25;4.90;99.90
7704;DHT22;3894;49.700;10.770;2024-02-28T06:17:51;4.90;99.90
7704;DHT22;3894;49.700;10.770;2024-02-28T06:20:17;4.90;99.90
7704;DHT22;3894;49.700;10.770;2024-02-28T06:22:42;4.90;99.90
7704;DHT22;3894;49.700;10.770;2024-02-28T06:25:08;4.90;99.90
7704;DHT22;3894;49.700;10.770;2024-02-28T06:27:43;4.90;99.90
7704;DHT22;3894;49.700;10.770;2024-02-28T06:30:08;4.80;99.90
7704;DHT22;3894;49.700;10.770;2024-02-28T06:32:34;4.80;99.90
7704;DHT22;3894;49.700;10.770;2024-02-28T06:35:00;4.80;99.90
7704;DHT22;3894;49.700;10.770;2024-02-28T06:37:25;4.80;99.90
7704;DHT22;3894;49.700;10.770;2024-02-28T06:39:51;4.90;99.90
7704;DHT22;3894;49.700;10.770;2024-02-28T06:42:16;4.90;99.90
7704;DHT22;3894;49.700;10.770;2024-02-28T06:44:42;4.90;99.90
7704;DHT22;3894;49.700;10.770;2024-02-28T06:47:07;4.90;99.90
7704;DHT22;3894;49.700;10.770;2024-02-28T06:49:34;4.90;99.90
7704;DHT22;3894;49.700;10.770;2024-02-28T06:51:59;4.90;99.90
7704;DHT22;3894;49.700;10.770;2024-02-28T06:54:29;4.90;99.90
7704;DHT22;3894;49.700;10.770;2024-02-28T06:56:55;4.90;99.90
7704;DHT22;3894;49.700;10.770;2024-02-28T06:59:20;4.90;99.90
7704;DHT22;3894;49.700;10.770;2024-02-28T07:01:46;4.90;99.90
7704;DHT22;3894;49.700;10.770;2024-02-28T07:04:12;5.00;99.90
7704;DHT22;3894;49.700;10.770;2024-02-28T07:06:37;5.00;99.90
7704;DHT22;3894;49.700;10.770;2024-02-28T07:09:03;5.00;99.90
7704;DHT22;3894;49.700;10.770;2024-02-28T07:11:28;5.00;99.90
7704;DHT22;3894;49.700;10.770;2024-02-28T07:13:54;5.10;99.90
7704;DHT22;3894;49.700;10.770;2024-02-28T07:16:22;5.10;99.90
7704;DHT22;3894;49.700;10.770;2024-02-28T07:18:48;5.10;99.90
7704;DHT22;3894;49.700;10.770;2024-02-28T07:21:13;5.10;99.90
7704;DHT22;3894;49.700;10.770;2024-02-28T07:23:40;5.20;99.90
7704;DHT22;3894;49.700;10.770;2024-02-28T07:26:06;5.20;99.90
7704;DHT22;3894;49.700;10.770;2024-02-28T07:28:32;5.20;99.90
7704;DHT22;3894;49.700;10.770;2024-02-28T07:30:58;5.20;99.90
7704;DHT22;3894;49.700;10.770;2024-02-28T07:33:23;5.20;99.90
7704;DHT22;3894;49.700;10.770;2024-02-28T07:35:52;5.20;99.90
7704;DHT22;3894;49.700;10.770;2024-02-28T07:38:17;5.30;99.90
7704;DHT22;3894;49.700;10.770;2024-02-28T07:40:45;5.30;99.90
7704;DHT22;3894;49.700;10.770;2024-02-28T07:43:11;5.40;99.90
7704;DHT22;3894;49.700;10.770;2024-02-28T07:45:37;5.40;99.90
7704;DHT22;3894;49.700;10.770;2024-02-28T07:48:02;5.40;99.90
7704;DHT22;3894;49.700;10.770;2024-02-28T07:50:28;5.40;99.90
7704;DHT22;3894;49.700;10.770;2024-02-28T07:52:55;5.40;99.90
7704;DHT22;3894;49.700;10.770;2024-02-28T07:55:20;5.40;99.90
7704;DHT22;3894;49.700;10.770;2024-02-28T07:57:50;5.40;99.90
7704;DHT22;3894;49.700;10.770;2024-02-28T08:00:16;5.30;99.90
7704;DHT22;3894;49.700;10.770;2024-02-28T08:02:44;5.30;99.90
7704;DHT22;3894;49.700;10.770;2024-02-28T08:05:10;5.30;99.90
7704;DHT22;3894;49.700;10.770;2024-02-28T08:07:35;5.30;99.90
7704;DHT22;3894;49.700;10.770;2024-02-28T08:10:02;5.30;99.90
7704;DHT22;3894;49.700;10.770;2024-02-28T08:12:27;5.40;99.90
7704;DHT22;3894;49.700;10.770;2024-02-28T08:14:53;5.40;99.90
7704;DHT22;3894;49.700;10.770;2024-02-28T08:17:18;5.40;99.90
7704;DHT22;3894;49.700;10.770;2024-02-28T08:19:44;5.40;99.90
7704;DHT22;3894;49.700;10.770;2024-02-28T08:22:09;5.50;99.90
7704;DHT22;3894;49.700;10.770;2024-02-28T08:24:36;5.50;99.90
7704;DHT22;3894;49.700;10.770;2024-02-28T08:27:02;5.40;99.90
7704;DHT22;3894;49.700;10.770;2024-02-28T08:29:28;5.50;99.90
7704;DHT22;3894;49.700;10.770;2024-02-28T08:31:53;5.50;99.90
7704;DHT22;3894;49.700;10.770;2024-02-28T08:34:19;5.40;99.90
7704;DHT22;3894;49.700;10.770;2024-02-28T08:36:45;5.50;99.90
7704;DHT22;3894;49.700;10.770;2024-02-28T08:39:10;5.50;99.90
7704;DHT22;3894;49.700;10.770;2024-02-28T08:41:38;5.40;99.90
7704;DHT22;3894;49.700;10.770;2024-02-28T08:44:03;5.40;99.90
7704;DHT22;3894;49.700;10.770;2024-02-28T08:46:29;5.40;99.90
7704;DHT22;3894;49.700;10.770;2024-02-28T08:48:55;5.50;99.90
7704;DHT22;3894;49.700;10.770;2024-02-28T08:51:20;5.50;99.90
7704;DHT22;3894;49.700;10.770;2024-02-28T08:53:46;5.50;99.90
7704;DHT22;3894;49.700;10.770;2024-02-28T08:56:12;5.60;99.90
7704;DHT22;3894;49.700;10.770;2024-02-28T08:58:38;5.60;99.90
7704;DHT22;3894;49.700;10.770;2024-02-28T09:01:03;5.60;99.90
7704;DHT22;3894;49.700;10.770;2024-02-28T09:03:29;5.70;99.90
7704;DHT22;3894;49.700;10.770;2024-02-28T09:05:55;5.80;99.90
7704;DHT22;3894;49.700;10.770;2024-02-28T09:08:20;5.90;99.90
7704;DHT22;3894;49.700;10.770;2024-02-28T09:10:46;5.90;99.90
7704;DHT22;3894;49.700;10.770;2024-02-28T09:13:12;5.90;99.90
7704;DHT22;3894;49.700;10.770;2024-02-28T09:15:38;5.90;99.90
7704;DHT22;3894;49.700;10.770;2024-02-28T09:18:04;6.00;99.90
7704;DHT22;3894;49.700;10.770;2024-02-28T09:20:30;6.00;99.90
7704;DHT22;3894;49.700;10.770;2024-02-28T09:22:55;6.00;99.90
7704;DHT22;3894;49.700;10.770;2024-02-28T09:25:21;6.00;99.90
7704;DHT22;3894;49.700;10.770;2024-02-28T09:27:47;6.00;99.90
7704;DHT22;3894;49.700;10.770;2024-02-28T09:30:13;6.10;99.90
7704;DHT22;3894;49.700;10.770;2024-02-28T09:32:39;6.10;99.90
7704;DHT22;3894;49.700;10.770;2024-02-28T09:35:04;6.10;99.90
7704;DHT22;3894;49.700;10.770;2024-02-28T09:37:30;6.10;99.90
7704;DHT22;3894;49.700;10.770;2024-02-28T09:39:57;6.20;99.90
7704;DHT22;3894;49.700;10.770;2024-02-28T09:42:23;6.20;99.90
7704;DHT22;3894;49.700;10.770;2024-02-28T09:44:48;6.30;99.90
7704;DHT22;3894;49.700;10.770;2024-02-28T09:47:14;6.30;99.90
7704;DHT22;3894;49.700;10.770;2024-02-28T09:49:42;6.30;99.90
7704;DHT22;3894;49.700;10.770;2024-02-28T09:52:08;6.40;99.90
7704;DHT22;3894;49.700;10.770;2024-02-28T09:54:33;6.40;99.90
7704;DHT22;3894;49.700;10.770;2024-02-28T09:56:59;6.40;99.90
7704;DHT22;3894;49.700;10.770;2024-02-28T09:59:25;6.30;99.90
7704;DHT22;3894;49.700;10.770;2024-02-28T10:01:57;6.40;99.90
7704;DHT22;3894;49.700;10.770;2024-02-28T10:04:29;6.40;99.90
7704;DHT22;3894;49.700;10.770;2024-02-28T10:06:56;6.50;99.90
7704;DHT22;3894;49.700;10.770;2024-02-28T10:09:21;6.50;99.90
7704;DHT22;3894;49.700;10.770;2024-02-28T10:11:47;6.50;99.90
7704;DHT22;3894;49.700;10.770;2024-02-28T10:14:17;6.50;99.90
7704;DHT22;3894;49.700;10.770;2024-02-28T10:16:44;6.50;99.90
7704;DHT22;3894;49.700;10.770;2024-02-28T10:19:09;6.50;99.90
7704;DHT22;3894;49.700;10.770;2024-02-28T10:21:35;6.50;99.90
7704;DHT22;3894;49.700;10.770;2024-02-28T10:24:00;6.40;99.90
7704;DHT22;3894;49.700;10.770;2024-02-28T10:26:26;6.40;99.90
7704;DHT22;3894;49.700;10.770;2024-02-28T10:28:52;6.40;99.90
7704;DHT22;3894;49.700;10.770;2024-02-28T10:31:17;6.40;99.90
7704;DHT22;3894;49.700;10.770;2024-02-28T10:33:43;6.40;99.90
7704;DHT22;3894;49.700;10.770;2024-02-28T10:36:09;6.40;99.90
7704;DHT22;3894;49.700;10.770;2024-02-28T10:38:34;6.40;99.90
7704;DHT22;3894;49.700;10.770;2024-02-28T10:41:01;6.60;99.90
7704;DHT22;3894;49.700;10.770;2024-02-28T10:43:31;6.70;99.90
7704;DHT22;3894;49.700;10.770;2024-02-28T10:46:00;6.90;99.90
7704;DHT22;3894;49.700;10.770;2024-02-28T10:48:27;7.00;99.90
7704;DHT22;3894;49.700;10.770;2024-02-28T10:50:53;7.10;99.90
7704;DHT22;3894;49.700;10.770;2024-02-28T10:53:25;7.20;99.90
7704;DHT22;3894;49.700;10.770;2024-02-28T10:55:55;7.40;99.90
7704;DHT22;3894;49.700;10.770;2024-02-28T10:58:24;7.60;99.90
7704;DHT22;3894;49.700;10.770;2024-02-28T11:00:52;7.70;99.90
7704;DHT22;3894;49.700;10.770;2024-02-28T11:03:18;7.90;99.90
7704;DHT22;3894;49.700;10.770;2024-02-28T11:05:45;8.10;99.90
7704;DHT22;3894;49.700;10.770;2024-02-28T11:08:22;8.30;99.90
7704;DHT22;3894;49.700;10.770;2024-02-28T11:10:57;8.10;99.90
7704;DHT22;3894;49.700;10.770;2024-02-28T11:13:24;7.90;99.90
7704;DHT22;3894;49.700;10.770;2024-02-28T11:15:51;7.80;99.90
7704;DHT22;3894;49.700;10.770;2024-02-28T11:18:17;7.70;99.90
7704;DHT22;3894;49.700;10.770;2024-02-28T11:20:43;7.70;99.90
7704;DHT22;3894;49.700;10.770;2024-02-28T11:23:11;7.70;99.90
7704;DHT22;3894;49.700;10.770;2024-02-28T11:25:37;7.60;99.90
7704;DHT22;3894;49.700;10.770;2024-02-28T11:28:04;7.70;99.90
7704;DHT22;3894;49.700;10.770;2024-02-28T11:30:29;8.00;99.90
7704;DHT22;3894;49.700;10.770;2024-02-28T11:32:55;8.30;99.90
7704;DHT22;3894;49.700;10.770;2024-02-28T11:35:24;8.60;99.90
7704;DHT22;3894;49.700;10.770;2024-02-28T11:37:49;8.70;99.90
7704;DHT22;3894;49.700;10.770;2024-02-28T11:40:16;8.40;99.90
7704;DHT22;3894;49.700;10.770;2024-02-28T11:42:41;8.40;99.90
7704;DHT22;3894;49.700;10.770;2024-02-28T11:45:10;8.30;99.90
7704;DHT22;3894;49.700;10.770;2024-02-28T11:47:36;8.50;99.90
7704;DHT22;3894;49.700;10.770;2024-02-28T11:50:03;8.50;99.90
7704;DHT22;3894;49.700;10.770;2024-02-28T11:52:33;8.20;99.90
7704;DHT22;3894;49.700;10.770;2024-02-28T11:54:59;8.00;99.90
7704;DHT22;3894;49.700;10.770;2024-02-28T11:57:26;8.20;99.90
7704;DHT22;3894;49.700;10.770;2024-02-28T11:59:51;8.70;99.90
7704;DHT22;3894;49.700;10.770;2024-02-28T12:02:17;9.10;99.90
7704;DHT22;3894;49.700;10.770;2024-02-28T12:04:44;9.40;99.90
7704;DHT22;3894;49.700;10.770;2024-02-28T12:07:13;9.50;99.90
7704;DHT22;3894;49.700;10.770;2024-02-28T12:09:39;9.30;99.90
7704;DHT22;3894;49.700;10.770;2024-02-28T12:12:06;9.40;99.90
7704;DHT22;3894;49.700;10.770;2024-02-28T12:14:35;9.60;99.90
7704;DHT22;3894;49.700;10.770;2024-02-28T12:17:01;9.40;99.90
7704;DHT22;3894;49.700;10.770;2024-02-28T12:19:27;9.00;99.90
7704;DHT22;3894;49.700;10.770;2024-02-28T12:21:54;8.80;99.90
7704;DHT22;3894;49.700;10.770;2024-02-28T12:24:21;9.10;99.90
7704;DHT22;3894;49.700;10.770;2024-02-28T12:26:47;9.30;99.90
7704;DHT22;3894;49.700;10.770;2024-02-28T12:29:12;9.60;99.90
7704;DHT22;3894;49.700;10.770;2024-02-28T12:31:39;9.80;99.90
7704;DHT22;3894;49.700;10.770;2024-02-28T12:34:05;10.00;99.90
7704;DHT22;3894;49.700;10.770;2024-02-28T12:36:31;10.20;99.90
7704;DHT22;3894;49.700;10.770;2024-02-28T12:38:58;10.20;99.90
7704;DHT22;3894;49.700;10.770;2024-02-28T12:41:25;10.20;99.90
7704;DHT22;3894;49.700;10.770;2024-02-28T12:43:51;10.10;99.90
7704;DHT22;3894;49.700;10.770;2024-02-28T12:46:16;9.90;99.90
7704;DHT22;3894;49.700;10.770;2024-02-28T12:48:42;9.80;99.90
7704;DHT22;3894;49.700;10.770;2024-02-28T12:51:13;9.90;99.90
7704;DHT22;3894;49.700;10.770;2024-02-28T12:53:45;10.10;99.90
7704;DHT22;3894;49.700;10.770;2024-02-28T12:56:11;10.30;99.90
7704;DHT22;3894;49.700;10.770;2024-02-28T12:58:37;10.30;99.90
7704;DHT22;3894;49.700;10.770;2024-02-28T13:01:03;10.30;99.90
7704;DHT22;3894;49.700;10.770;2024-02-28T13:03:30;10.20;99.90
7704;DHT22;3894;49.700;10.770;2024-02-28T13:05:55;10.30;99.90
7704;DHT22;3894;49.700;10.770;2024-02-28T13:08:21;10.20;99.90
7704;DHT22;3894;49.700;10.770;2024-02-28T13:10:46;10.20;99.90
7704;DHT22;3894;49.700;10.770;2024-02-28T13:13:12;10.10;99.90
7704;DHT22;3894;49.700;10.770;2024-02-28T13:15:39;10.10;99.90
7704;DHT22;3894;49.700;10.770;2024-02-28T13:18:05;10.20;99.90
7704;DHT22;3894;49.700;10.770;2024-02-28T13:20:34;10.40;99.90
7704;DHT22;3894;49.700;10.770;2024-02-28T13:23:00;10.50;99.90
7704;DHT22;3894;49.700;10.770;2024-02-28T13:25:26;10.40;99.90
7704;DHT22;3894;49.700;10.770;2024-02-28T13:27:52;10.40;99.90
7704;DHT22;3894;49.700;10.770;2024-02-28T13:30:17;10.40;99.90
7704;DHT22;3894;49.700;10.770;2024-02-28T13:32:43;10.50;99.90
7704;DHT22;3894;49.700;10.770;2024-02-28T13:35:09;10.60;99.90
7704;DHT22;3894;49.700;10.770;2024-02-28T13:37:35;10.50;99.90
7704;DHT22;3894;49.700;10.770;2024-02-28T13:40:02;10.60;99.90
7704;DHT22;3894;49.700;10.770;2024-02-28T13:42:30;10.50;99.90
7704;DHT22;3894;49.700;10.770;2024-02-28T13:44:55;10.50;99.90
7704;DHT22;3894;49.700;10.770;2024-02-28T13:47:21;10.50;99.90
7704;DHT22;3894;49.700;10.770;2024-02-28T13:49:46;10.50;99.90
7704;DHT22;3894;49.700;10.770;2024-02-28T13:52:12;10.50;99.90
7704;DHT22;3894;49.700;10.770;2024-02-28T13:54:38;10.40;99.90
7704;DHT22;3894;49.700;10.770;2024-02-28T13:57:04;10.30;99.90
7704;DHT22;3894;49.700;10.770;2024-02-28T13:59:30;10.20;99.90
7704;DHT22;3894;49.700;10.770;2024-02-28T14:01:56;10.20;99.90
7704;DHT22;3894;49.700;10.770;2024-02-28T14:04:22;10.10;99.90
7704;DHT22;3894;49.700;10.770;2024-02-28T14:06:48;10.10;99.90
7704;DHT22;3894;49.700;10.770;2024-02-28T14:09:14;10.10;99.90
7704;DHT22;3894;49.700;10.770;2024-02-28T14:11:40;10.10;99.90
7704;DHT22;3894;49.700;10.770;2024-02-28T14:14:05;10.10;99.90
7704;DHT22;3894;49.700;10.770;2024-02-28T14:16:32;10.10;99.90
7704;DHT22;3894;49.700;10.770;2024-02-28T14:18:58;10.00;99.90
7704;DHT22;3894;49.700;10.770;2024-02-28T14:21:23;10.00;99.90
7704;DHT22;3894;49.700;10.770;2024-02-28T14:23:50;9.90;99.90
7704;DHT22;3894;49.700;10.770;2024-02-28T14:26:16;9.90;99.90
7704;DHT22;3894;49.700;10.770;2024-02-28T14:28:42;9.90;99.90
7704;DHT22;3894;49.700;10.770;2024-02-28T14:31:08;9.90;99.90
7704;DHT22;3894;49.700;10.770;2024-02-28T14:33:33;9.80;99.90
7704;DHT22;3894;49.700;10.770;2024-02-28T14:36:02;9.80;99.90
7704;DHT22;3894;49.700;10.770;2024-02-28T14:38:30;9.80;99.90
7704;DHT22;3894;49.700;10.770;2024-02-28T14:40:56;9.80;99.90
7704;DHT22;3894;49.700;10.770;2024-02-28T14:43:21;9.80;99.90
7704;DHT22;3894;49.700;10.770;2024-02-28T14:45:47;9.80;99.90
7704;DHT22;3894;49.700;10.770;2024-02-28T14:48:13;9.70;99.90
7704;DHT22;3894;49.700;10.770;2024-02-28T14:50:38;9.70;99.90
7704;DHT22;3894;49.700;10.770;2024-02-28T14:53:04;9.70;99.90
7704;DHT22;3894;49.700;10.770;2024-02-28T14:55:29;9.70;99.90
7704;DHT22;3894;49.700;10.770;2024-02-28T14:57:55;9.70;99.90
7704;DHT22;3894;49.700;10.770;2024-02-28T15:00:21;9.70;99.90
7704;DHT22;3894;49.700;10.770;2024-02-28T15:02:46;9.70;99.90
7704;DHT22;3894;49.700;10.770;2024-02-28T15:05:12;9.70;99.90
7704;DHT22;3894;49.700;10.770;2024-02-28T15:07:38;9.70;99.90
7704;DHT22;3894;49.700;10.770;2024-02-28T15:10:06;9.70;99.90
7704;DHT22;3894;49.700;10.770;2024-02-28T15:12:33;9.70;99.90
7704;DHT22;3894;49.700;10.770;2024-02-28T15:15:05;9.70;99.90
7704;DHT22;3894;49.700;10.770;2024-02-28T15:17:31;9.70;99.90
7704;DHT22;3894;49.700;10.770;2024-02-28T15:19:57;9.60;99.90
7704;DHT22;3894;49.700;10.770;2024-02-28T15:22:23;9.60;99.90
7704;DHT22;3894;49.700;10.770;2024-02-28T15:24:48;9.50;99.90
7704;DHT22;3894;49.700;10.770;2024-02-28T15:27:14;9.50;99.90
7704;DHT22;3894;49.700;10.770;2024-02-28T15:29:40;9.50;99.90
7704;DHT22;3894;49.700;10.770;2024-02-28T15:32:06;9.50;99.90
7704;DHT22;3894;49.700;10.770;2024-02-28T15:34:31;9.40;99.90
7704;DHT22;3894;49.700;10.770;2024-02-28T15:36:57;9.40;99.90
7704;DHT22;3894;49.700;10.770;2024-02-28T15:39:22;9.40;99.90
7704;DHT22;3894;49.700;10.770;2024-02-28T15:41:48;9.40;99.90
7704;DHT22;3894;49.700;10.770;2024-02-28T15:44:14;9.40;99.90
7704;DHT22;3894;49.700;10.770;2024-02-28T15:46:39;9.30;99.90
7704;DHT22;3894;49.700;10.770;2024-02-28T15:49:05;9.30;99.90
7704;DHT22;3894;49.700;10.770;2024-02-28T15:51:31;9.30;99.90
7704;DHT22;3894;49.700;10.770;2024-02-28T15:53:58;9.30;99.90